createdAt,value
2023-08-12T00:03:14.189Z,3.53
2023-08-12T00:06:38.234Z,3.58
2023-08-12T00:10:00.913Z,3.65
2023-08-12T00:13:22.600Z,3.35
2023-08-12T00:16:44.295Z,3.95
2023-08-12T00:20:11.831Z,3.53
2023-08-12T00:23:33.539Z,3.85
2023-08-12T00:26:57.685Z,3.78
2023-08-12T00:30:21.897Z,3.50
2023-08-12T00:33:46.389Z,3.50
2023-08-12T00:37:08.033Z,3.20
2023-08-12T00:40:29.651Z,9.48
2023-08-12T00:43:51.245Z,10.73
2023-08-12T00:47:13.371Z,3.78
2023-08-12T00:50:38.702Z,3.70
2023-08-12T00:54:05.302Z,3.42
2023-08-12T00:57:27.006Z,3.95
2023-08-12T01:00:48.723Z,4.15
2023-08-12T01:04:12.892Z,5.03
2023-08-12T01:07:36.934Z,5.97
2023-08-12T01:11:16.787Z,4.10
2023-08-12T01:14:55.452Z,3.83
2023-08-12T01:21:44.832Z,3.47
2023-08-12T01:25:10.360Z,4.05
2023-08-12T01:28:32.019Z,4.28
2023-08-12T01:31:59.447Z,4.18
2023-08-12T01:35:24.957Z,4.03
2023-08-12T01:38:52.569Z,3.90
2023-08-12T01:42:21.602Z,4.18
2023-08-12T01:45:45.516Z,3.90
2023-08-12T01:49:07.169Z,3.42
2023-08-12T01:52:28.954Z,3.70
2023-08-12T01:55:56.822Z,3.40
2023-08-12T01:59:18.542Z,3.90
2023-08-12T02:02:40.280Z,3.70
2023-08-12T02:06:04.551Z,3.80
2023-08-12T02:09:26.312Z,3.67
2023-08-12T02:12:47.965Z,3.78
2023-08-12T02:16:14.382Z,3.50
2023-08-12T02:19:36.102Z,3.45
2023-08-12T02:23:00.981Z,3.97
2023-08-12T02:26:22.631Z,3.80
2023-08-12T02:29:46.720Z,3.60
2023-08-12T02:33:08.373Z,3.90
2023-08-12T02:36:30.109Z,4.63
2023-08-12T02:39:54.241Z,3.47
2023-08-12T02:43:15.951Z,3.60
2023-08-12T02:46:40.030Z,3.58
2023-08-12T02:50:01.723Z,3.78
2023-08-12T02:53:26.067Z,3.72
2023-08-12T02:56:53.573Z,3.72
2023-08-12T03:00:18.209Z,3.53
2023-08-12T03:03:42.384Z,3.58
2023-08-12T03:07:04.149Z,3.42
2023-08-12T03:10:25.840Z,3.75
2023-08-12T03:13:47.435Z,3.55
2023-08-12T03:17:13.793Z,4.00
2023-08-12T03:20:35.675Z,3.35
2023-08-12T03:24:00.082Z,3.70
2023-08-12T03:27:21.726Z,4.30
2023-08-12T03:30:51.732Z,8.20
2023-08-12T03:34:13.700Z,8.73
2023-08-12T03:37:35.434Z,4.13
2023-08-12T03:40:59.557Z,3.88
2023-08-12T03:44:21.194Z,12.23
2023-08-12T03:47:45.300Z,6.05
2023-08-12T03:51:06.915Z,3.35
2023-08-12T03:54:28.540Z,3.97
2023-08-12T03:57:50.212Z,3.75
2023-08-12T04:01:14.192Z,4.05
2023-08-12T04:04:35.894Z,3.40
2023-08-12T04:07:57.470Z,4.40
2023-08-12T04:11:19.079Z,3.78
2023-08-12T04:14:42.117Z,3.63
2023-08-12T04:18:04.175Z,3.33
2023-08-12T04:21:28.100Z,3.42
2023-08-12T04:24:50.155Z,3.67
2023-08-12T04:28:14.830Z,4.03
2023-08-12T04:31:36.603Z,3.25
2023-08-12T04:35:00.523Z,3.55
2023-08-12T04:38:22.207Z,3.65
2023-08-12T04:41:46.145Z,3.80
2023-08-12T04:45:08.146Z,3.22
2023-08-12T04:48:29.827Z,3.38
2023-08-12T04:51:55.143Z,3.35
2023-08-12T04:55:17.069Z,3.47
2023-08-12T04:58:41.147Z,3.70
2023-08-12T05:02:17.161Z,3.40
2023-08-12T05:05:43.660Z,3.15
2023-08-12T05:09:05.478Z,3.42
2023-08-12T05:12:27.162Z,2.80
2023-08-12T05:15:51.396Z,3.30
2023-08-12T05:19:13.046Z,3.22
2023-08-12T05:22:36.732Z,4.18
2023-08-12T05:26:01.120Z,26.73
2023-08-12T05:29:25.244Z,28.98
2023-08-12T05:32:49.416Z,4.65
2023-08-12T05:36:11.167Z,3.38
2023-08-12T05:39:35.020Z,2.60
2023-08-12T05:42:56.646Z,2.63
2023-08-12T05:46:20.644Z,2.83
2023-08-12T05:49:43.475Z,2.42
2023-08-12T05:53:05.170Z,2.70
2023-08-12T05:56:26.857Z,2.70
2023-08-12T05:59:48.516Z,2.65
2023-08-12T06:03:13.235Z,2.40
2023-08-12T06:06:37.634Z,2.85
2023-08-12T06:10:01.500Z,3.50
2023-08-12T06:13:25.482Z,3.00
2023-08-12T06:16:49.834Z,3.40
2023-08-12T06:20:14.896Z,2.88
2023-08-12T06:23:36.538Z,2.60
2023-08-12T06:27:00.634Z,2.50
2023-08-12T06:30:22.315Z,2.53
2023-08-12T06:33:43.972Z,2.50
2023-08-12T06:37:05.555Z,2.80
2023-08-12T06:40:27.990Z,2.60
2023-08-12T06:43:52.085Z,2.63
2023-08-12T06:47:16.220Z,2.63
2023-08-12T06:50:40.171Z,2.20
2023-08-12T06:54:02.503Z,2.50
2023-08-12T06:57:24.193Z,2.40
2023-08-12T07:00:48.060Z,2.30
2023-08-12T07:04:09.723Z,2.33
2023-08-12T07:07:33.789Z,2.55
2023-08-12T07:10:55.488Z,2.05
2023-08-12T07:14:21.909Z,2.15
2023-08-12T07:17:43.529Z,3.03
2023-08-12T07:21:05.271Z,2.17
2023-08-12T07:24:29.356Z,2.67
2023-08-12T07:27:56.063Z,2.17
2023-08-12T07:31:18.869Z,2.35
2023-08-12T07:34:42.904Z,2.40
2023-08-12T07:38:04.852Z,2.30
2023-08-12T07:41:28.682Z,2.33
2023-08-12T07:44:50.309Z,2.05
2023-08-12T07:48:12.132Z,2.40
2023-08-12T07:51:36.120Z,2.30
2023-08-12T07:54:57.769Z,2.50
2023-08-12T07:58:21.742Z,2.63
2023-08-12T08:01:45.637Z,2.22
2023-08-12T08:05:10.096Z,2.10
2023-08-12T08:08:31.821Z,2.05
2023-08-12T08:11:57.305Z,2.78
2023-08-12T08:15:19.356Z,2.50
2023-08-12T08:18:40.948Z,2.20
2023-08-12T08:22:02.658Z,2.22
2023-08-12T08:25:28.729Z,2.28
2023-08-12T08:28:52.895Z,2.22
2023-08-12T08:32:17.817Z,2.10
2023-08-12T08:35:39.562Z,2.17
2023-08-12T08:39:01.203Z,2.63
2023-08-12T08:42:25.915Z,2.30
2023-08-12T08:45:53.291Z,2.50
2023-08-12T08:49:18.605Z,2.60
2023-08-12T08:52:44.448Z,4.65
2023-08-12T08:56:15.631Z,2.25
2023-08-12T08:59:37.814Z,2.10
2023-08-12T09:03:04.479Z,3.13
2023-08-12T09:06:29.592Z,2.40
2023-08-12T09:09:53.783Z,2.30
2023-08-12T09:13:19.488Z,2.28
2023-08-12T09:16:41.229Z,2.10
2023-08-12T09:20:02.972Z,2.42
2023-08-12T09:23:27.076Z,2.25
2023-08-12T09:26:56.546Z,3.53
2023-08-12T09:30:19.269Z,1.90
2023-08-12T09:33:41.416Z,2.05
2023-08-12T09:37:05.479Z,2.10
2023-08-12T09:40:27.584Z,2.35
2023-08-12T09:43:54.248Z,2.00
2023-08-12T09:47:15.864Z,1.98
2023-08-12T09:50:39.833Z,2.00
2023-08-12T09:54:01.808Z,2.03
2023-08-12T09:57:26.928Z,2.10
2023-08-12T10:00:51.553Z,2.10
2023-08-12T10:04:18.043Z,2.00
2023-08-12T10:07:41.329Z,1.67
2023-08-12T10:11:13.141Z,2.03
2023-08-12T10:14:37.760Z,2.00
2023-08-12T10:18:01.770Z,1.88
2023-08-12T10:21:24.570Z,8.30
2023-08-12T10:24:47.437Z,1.70
2023-08-12T10:28:11.824Z,1.70
2023-08-12T10:31:36.455Z,2.00
2023-08-12T10:34:58.801Z,2.20
2023-08-12T10:38:21.716Z,1.80
2023-08-12T10:41:52.312Z,1.83
2023-08-12T10:45:16.098Z,1.90
2023-08-12T10:48:56.936Z,1.90
2023-08-12T10:52:34.955Z,1.92
2023-08-12T10:56:01.004Z,1.80
2023-08-12T10:59:55.110Z,1.70
2023-08-12T11:03:16.981Z,1.83
2023-08-12T11:06:46.825Z,1.80
2023-08-12T11:10:15.273Z,1.60
2023-08-12T11:14:02.972Z,1.48
2023-08-12T11:17:34.095Z,1.83
2023-08-12T11:20:58.821Z,1.80
2023-08-12T11:24:25.468Z,1.80
2023-08-12T11:27:49.005Z,1.67
2023-08-12T11:31:11.350Z,1.80
2023-08-12T11:34:34.166Z,1.98
2023-08-12T11:37:58.687Z,2.03
2023-08-12T11:41:25.706Z,2.10
2023-08-12T11:48:14.606Z,2.17
2023-08-12T11:51:40.955Z,1.67
2023-08-12T11:55:03.060Z,2.67
2023-08-12T11:58:24.773Z,2.35
2023-08-12T12:01:55.347Z,1.75
2023-08-12T12:05:24.770Z,2.20
2023-08-12T12:08:48.209Z,1.65
2023-08-12T12:12:11.580Z,1.80
2023-08-12T12:15:42.753Z,1.70
2023-08-12T12:19:06.602Z,1.77
2023-08-12T12:22:30.512Z,1.75
2023-08-12T12:26:01.712Z,1.80
2023-08-12T12:29:28.293Z,1.80
2023-08-12T12:32:50.028Z,2.05
2023-08-12T12:36:11.748Z,1.80
2023-08-12T12:39:33.377Z,1.90
2023-08-12T12:42:54.984Z,1.77
2023-08-12T12:46:19.328Z,1.75
2023-08-12T12:49:43.232Z,1.63
2023-08-12T12:53:04.986Z,2.03
2023-08-12T12:56:29.179Z,1.75
2023-08-12T12:59:53.035Z,2.00
2023-08-12T13:03:17.029Z,1.60
2023-08-12T13:06:41.785Z,1.73
2023-08-12T13:10:06.133Z,1.80
2023-08-12T13:13:27.905Z,1.80
2023-08-12T13:16:52.071Z,1.95
2023-08-12T13:20:16.419Z,1.80
2023-08-12T13:23:38.079Z,1.80
2023-08-12T13:27:01.902Z,1.52
2023-08-12T13:30:23.627Z,1.88
2023-08-12T13:33:45.272Z,1.90
2023-08-12T13:37:07.059Z,1.70
2023-08-12T13:40:28.758Z,1.80
2023-08-12T13:43:50.547Z,2.08
2023-08-12T13:47:15.084Z,1.65
2023-08-12T13:50:38.777Z,1.88
2023-08-12T13:54:00.374Z,1.63
2023-08-12T13:57:22.094Z,1.70
2023-08-12T14:00:46.018Z,1.75
2023-08-12T14:04:07.645Z,2.50
2023-08-12T14:07:31.917Z,3.22
2023-08-12T14:10:56.376Z,10.90
2023-08-12T14:14:18.030Z,1.80
2023-08-12T14:17:39.726Z,1.55
2023-08-12T14:21:01.466Z,1.50
2023-08-12T14:24:25.586Z,1.70
2023-08-12T14:27:47.176Z,1.80
2023-08-12T14:31:08.916Z,1.60
2023-08-12T14:34:30.610Z,1.90
2023-08-12T14:37:54.901Z,1.60
2023-08-12T14:41:16.537Z,2.30
2023-08-12T14:44:42.970Z,2.20
2023-08-12T14:48:04.886Z,2.03
2023-08-12T14:51:27.018Z,1.67
2023-08-12T14:54:53.366Z,2.00
2023-08-12T14:58:17.466Z,1.90
2023-08-12T15:01:41.201Z,1.52
2023-08-12T15:05:02.828Z,1.85
2023-08-12T15:08:27.179Z,3.60
2023-08-12T15:11:48.821Z,2.35
2023-08-12T15:15:10.679Z,6.07
2023-08-12T15:18:32.473Z,3.38
2023-08-12T15:21:56.444Z,2.10
2023-08-12T15:25:20.786Z,1.70
2023-08-12T15:28:45.027Z,1.90
2023-08-12T15:32:09.250Z,2.20
2023-08-12T15:35:33.289Z,2.22
2023-08-12T15:38:57.667Z,1.70
2023-08-12T15:42:19.343Z,2.00
2023-08-12T15:45:43.174Z,1.83
2023-08-12T15:49:11.755Z,2.30
2023-08-12T15:52:35.836Z,1.60
2023-08-12T15:55:57.596Z,1.90
2023-08-12T15:59:20.777Z,1.90
2023-08-12T16:02:43.536Z,1.58
2023-08-12T16:06:05.230Z,1.80
2023-08-12T16:09:26.909Z,2.00
2023-08-12T16:12:48.556Z,2.20
2023-08-12T16:16:12.667Z,1.95
2023-08-12T16:19:34.328Z,2.13
2023-08-12T16:22:55.945Z,2.92
2023-08-12T16:26:18.757Z,1.98
2023-08-12T16:29:41.849Z,1.80
2023-08-12T16:33:05.314Z,3.85
2023-08-12T16:36:27.057Z,2.60
2023-08-12T16:39:49.274Z,2.17
2023-08-12T16:43:12.915Z,2.70
2023-08-12T16:46:34.583Z,2.13
2023-08-12T16:49:56.170Z,2.15
2023-08-12T16:53:17.856Z,2.03
2023-08-12T16:56:44.203Z,2.00
2023-08-12T17:00:07.101Z,1.90
2023-08-12T17:03:28.784Z,1.92
2023-08-12T17:06:53.932Z,2.00
2023-08-12T17:10:20.637Z,1.90
2023-08-12T17:13:42.487Z,2.17
2023-08-12T17:17:04.352Z,3.78
2023-08-12T17:20:28.628Z,2.70
2023-08-12T17:23:55.240Z,2.08
2023-08-12T17:27:16.993Z,2.20
2023-08-12T17:30:38.685Z,2.00
2023-08-12T17:34:03.825Z,2.58
2023-08-12T17:37:25.607Z,2.42
2023-08-12T17:40:50.270Z,2.13
2023-08-12T17:44:11.902Z,2.20
2023-08-12T17:47:38.400Z,2.53
2023-08-12T17:51:02.325Z,3.87
2023-08-12T17:54:29.474Z,3.42
2023-08-12T17:57:53.632Z,8.18
2023-08-12T18:01:18.203Z,15.20
2023-08-12T18:04:42.181Z,18.98
2023-08-12T18:08:06.828Z,12.45
2023-08-12T18:11:28.671Z,4.53
2023-08-12T18:14:50.340Z,8.07
2023-08-12T18:18:11.960Z,14.52
2023-08-12T18:21:36.611Z,15.85
2023-08-12T18:24:58.199Z,9.30
2023-08-12T18:28:19.854Z,6.43
2023-08-12T18:31:41.449Z,5.45
2023-08-12T18:35:03.387Z,4.10
2023-08-12T18:38:25.097Z,3.15
2023-08-12T18:41:47.056Z,2.70
2023-08-12T18:45:11.908Z,3.30
2023-08-12T18:48:33.580Z,3.60
2023-08-12T18:51:55.437Z,5.18
2023-08-12T18:55:22.481Z,5.10
2023-08-12T18:58:46.509Z,3.90
2023-08-12T19:02:11.070Z,4.05
2023-08-12T19:05:32.729Z,4.00
2023-08-12T19:08:54.486Z,4.88
2023-08-12T19:12:16.286Z,4.13
2023-08-12T19:15:38.261Z,5.10
2023-08-12T19:19:02.163Z,4.47
2023-08-12T19:22:23.815Z,4.60
2023-08-12T19:25:45.548Z,5.28
2023-08-12T19:29:07.223Z,5.35
2023-08-12T19:32:28.904Z,4.85
2023-08-12T19:35:50.762Z,4.78
2023-08-12T19:39:12.408Z,3.95
2023-08-12T19:42:34.278Z,3.42
2023-08-12T19:46:00.816Z,3.55
2023-08-12T19:49:22.544Z,4.68
2023-08-12T19:52:48.956Z,4.93
2023-08-12T19:56:10.644Z,4.85
2023-08-12T19:59:32.276Z,4.47
2023-08-12T20:02:56.773Z,4.10
2023-08-12T20:06:18.531Z,4.60
2023-08-12T20:09:42.654Z,4.18
2023-08-12T20:13:04.568Z,4.60
2023-08-12T20:16:26.225Z,4.72
2023-08-12T20:19:50.083Z,4.65
2023-08-12T20:23:11.865Z,5.45
2023-08-12T20:26:33.530Z,4.65
2023-08-12T20:29:55.156Z,4.50
2023-08-12T20:33:17.101Z,4.85
2023-08-12T20:36:38.804Z,5.05
2023-08-12T20:40:00.451Z,5.10
2023-08-12T20:43:22.138Z,4.88
2023-08-12T20:46:46.065Z,4.75
2023-08-12T20:50:10.550Z,4.75
2023-08-12T20:53:34.660Z,4.90
2023-08-12T20:56:56.355Z,5.53
2023-08-12T21:00:20.331Z,5.28
2023-08-12T21:03:44.331Z,5.05
2023-08-12T21:07:06.716Z,4.47
2023-08-12T21:10:28.401Z,4.60
2023-08-12T21:13:50.045Z,4.88
2023-08-12T21:17:12.003Z,4.72
2023-08-12T21:20:33.736Z,4.10
2023-08-12T21:23:55.339Z,4.85
2023-08-12T21:27:19.390Z,4.45
2023-08-12T21:30:43.556Z,4.70
2023-08-12T21:34:08.968Z,4.20
2023-08-12T21:37:33.355Z,4.47
2023-08-12T21:40:57.492Z,4.70
2023-08-12T21:44:21.530Z,4.68
2023-08-12T21:47:43.300Z,4.90
2023-08-12T21:51:05.701Z,4.47
2023-08-12T21:54:28.514Z,4.97
2023-08-12T21:57:52.522Z,4.72
2023-08-12T22:01:14.668Z,4.65
2023-08-12T22:04:38.639Z,5.47
2023-08-12T22:08:02.695Z,5.43
2023-08-12T22:11:29.121Z,4.65
2023-08-12T22:14:50.816Z,4.40
2023-08-12T22:18:12.708Z,4.85
2023-08-12T22:21:37.062Z,4.63
2023-08-12T22:24:58.691Z,4.95
2023-08-12T22:28:22.582Z,4.72
2023-08-12T22:31:44.246Z,4.22
2023-08-12T22:35:08.702Z,4.72
2023-08-12T22:38:33.079Z,4.65
2023-08-12T22:41:54.686Z,4.60
2023-08-12T22:45:16.861Z,4.50
2023-08-12T22:48:38.517Z,4.32
2023-08-12T22:52:02.674Z,4.43
2023-08-12T22:55:24.388Z,4.60
2023-08-12T22:58:46.131Z,4.68
2023-08-12T23:02:10.168Z,4.78
2023-08-12T23:05:31.882Z,5.18
2023-08-12T23:08:53.732Z,5.03
2023-08-12T23:12:20.715Z,4.68
2023-08-12T23:15:43.674Z,4.72
2023-08-12T23:19:05.783Z,5.22
2023-08-12T23:22:27.414Z,4.72
2023-08-12T23:25:49.042Z,5.32
2023-08-12T23:29:13.179Z,4.43
2023-08-12T23:32:38.540Z,4.82
2023-08-12T23:36:05.231Z,4.50
2023-08-12T23:39:27.602Z,4.18
2023-08-12T23:42:51.560Z,4.45
2023-08-12T23:46:13.873Z,4.50
2023-08-12T23:49:35.570Z,4.20
2023-08-12T23:52:59.681Z,4.25
2023-08-12T23:56:23.508Z,4.65
2023-08-12T23:59:47.341Z,4.40
